createdAt,value
2017-11-13T00:00:04.184Z,5.49
2017-11-13T00:02:31.648Z,5.61
2017-11-13T00:04:59.159Z,5.71
2017-11-13T00:07:26.664Z,5.77
2017-11-13T00:09:54.119Z,5.75
2017-11-13T00:12:21.682Z,5.76
2017-11-13T00:14:49.139Z,5.74
2017-11-13T00:17:16.625Z,5.88
2017-11-13T00:19:44.095Z,5.87
2017-11-13T00:22:11.570Z,5.84
2017-11-13T00:24:39.030Z,5.89
2017-11-13T00:27:06.511Z,6.06
2017-11-13T00:29:33.969Z,5.91
2017-11-13T00:32:01.442Z,5.87
2017-11-13T00:34:28.928Z,5.89
2017-11-13T00:36:56.405Z,5.91
2017-11-13T00:39:23.870Z,6.09
2017-11-13T00:41:51.374Z,5.86
2017-11-13T00:44:18.838Z,5.83
2017-11-13T00:46:46.315Z,5.81
2017-11-13T00:49:13.788Z,5.86
2017-11-13T00:51:41.262Z,5.82
2017-11-13T00:54:08.750Z,5.84
2017-11-13T00:56:36.218Z,5.82
2017-11-13T00:59:03.770Z,5.92
2017-11-13T01:01:31.235Z,5.91
2017-11-13T01:03:58.720Z,5.89
2017-11-13T01:06:26.164Z,5.88
2017-11-13T01:08:53.654Z,5.75
2017-11-13T01:11:21.102Z,5.85
2017-11-13T01:13:48.556Z,5.88
2017-11-13T01:16:15.997Z,5.85
2017-11-13T01:18:43.450Z,5.68
2017-11-13T01:21:10.899Z,5.85
2017-11-13T01:23:38.412Z,5.93
2017-11-13T01:26:05.868Z,5.94
2017-11-13T01:28:33.337Z,5.98
2017-11-13T01:31:00.780Z,6.00
2017-11-13T01:33:28.262Z,6.04
2017-11-13T01:35:55.718Z,5.99
2017-11-13T01:38:23.157Z,6.01
2017-11-13T01:40:50.644Z,5.99
2017-11-13T01:43:18.076Z,6.07
2017-11-13T01:45:45.545Z,6.04
2017-11-13T01:48:13.016Z,5.88
2017-11-13T01:50:40.492Z,5.92
2017-11-13T01:53:07.930Z,5.99
2017-11-13T01:55:35.401Z,6.08
2017-11-13T01:58:02.858Z,6.05
2017-11-13T02:00:30.312Z,6.02
2017-11-13T02:02:57.765Z,6.10
2017-11-13T02:05:25.252Z,6.14
2017-11-13T02:07:52.686Z,5.99
2017-11-13T02:10:20.139Z,5.94
2017-11-13T02:12:47.619Z,6.03
2017-11-13T02:15:15.064Z,6.10
2017-11-13T02:17:42.526Z,6.48
2017-11-13T02:20:09.955Z,6.17
2017-11-13T02:22:37.410Z,6.20
2017-11-13T02:25:04.865Z,6.19
2017-11-13T02:27:32.323Z,6.16
2017-11-13T02:29:59.768Z,6.02
2017-11-13T02:32:27.222Z,6.18
2017-11-13T02:34:54.765Z,6.21
2017-11-13T02:37:22.323Z,6.17
2017-11-13T02:39:49.760Z,6.17
2017-11-13T02:42:17.332Z,6.15
2017-11-13T02:44:44.776Z,6.41
2017-11-13T02:47:12.241Z,6.35
2017-11-13T02:49:39.671Z,6.28
2017-11-13T02:52:07.157Z,6.35
2017-11-13T02:54:34.631Z,6.36
2017-11-13T02:57:02.058Z,6.32
2017-11-13T02:59:29.524Z,6.30
2017-11-13T03:01:56.965Z,6.38
2017-11-13T03:04:24.451Z,6.39
2017-11-13T03:06:51.898Z,6.72
2017-11-13T03:09:19.382Z,6.68
2017-11-13T03:11:46.822Z,6.73
2017-11-13T03:14:14.279Z,6.79
2017-11-13T03:16:41.707Z,6.89
2017-11-13T03:19:09.160Z,6.76
2017-11-13T03:21:36.591Z,6.91
2017-11-13T03:24:04.053Z,6.70
2017-11-13T03:26:31.488Z,6.86
2017-11-13T03:28:59.005Z,6.62
2017-11-13T03:31:26.448Z,6.71
2017-11-13T03:33:53.904Z,6.64
2017-11-13T03:36:21.330Z,6.49
2017-11-13T03:38:48.816Z,6.36
2017-11-13T03:41:16.247Z,6.30
2017-11-13T03:43:43.709Z,6.27
2017-11-13T03:46:11.167Z,6.28
2017-11-13T03:48:38.608Z,6.41
2017-11-13T03:51:06.077Z,6.45
2017-11-13T03:53:33.532Z,6.45
2017-11-13T03:56:01.014Z,6.46
2017-11-13T03:58:28.445Z,6.50
2017-11-13T04:00:55.912Z,6.47
2017-11-13T04:03:23.347Z,6.49
2017-11-13T04:05:50.934Z,6.53
2017-11-13T04:08:18.368Z,6.55
2017-11-13T04:10:45.869Z,6.63
2017-11-13T04:13:13.343Z,6.61
2017-11-13T04:15:40.815Z,6.53
2017-11-13T04:18:08.264Z,6.54
2017-11-13T04:20:35.767Z,6.63
2017-11-13T04:23:03.222Z,6.57
2017-11-13T04:25:30.709Z,6.88
2017-11-13T04:27:58.181Z,6.62
2017-11-13T04:30:25.636Z,6.61
2017-11-13T04:32:53.116Z,6.60
2017-11-13T04:35:20.559Z,6.64
2017-11-13T04:37:48.080Z,6.67
2017-11-13T04:40:15.530Z,6.75
2017-11-13T04:42:42.992Z,6.64
2017-11-13T04:45:10.464Z,6.51
2017-11-13T04:47:38.109Z,6.59
2017-11-13T04:50:05.568Z,6.53
2017-11-13T04:52:33.096Z,6.62
2017-11-13T04:55:00.556Z,6.66
2017-11-13T04:57:28.008Z,6.81
2017-11-13T04:59:55.472Z,6.68
2017-11-13T05:02:22.953Z,6.61
2017-11-13T05:04:50.444Z,6.60
2017-11-13T05:07:17.895Z,7.03
2017-11-13T05:09:45.376Z,6.94
2017-11-13T05:12:13.205Z,6.87
2017-11-13T05:14:40.668Z,6.75
2017-11-13T05:17:08.120Z,6.64
2017-11-13T05:19:35.589Z,6.65
2017-11-13T05:22:03.147Z,6.72
2017-11-13T05:24:30.646Z,7.03
2017-11-13T05:26:58.092Z,6.77
2017-11-13T05:29:25.577Z,7.04
2017-11-13T05:31:53.027Z,6.87
2017-11-13T05:34:20.475Z,7.18
2017-11-13T05:36:47.980Z,7.09
2017-11-13T05:39:15.436Z,6.84
2017-11-13T05:41:42.916Z,6.73
2017-11-13T05:44:10.429Z,6.69
2017-11-13T05:46:37.892Z,6.91
2017-11-13T05:49:05.417Z,7.05
2017-11-13T05:51:32.895Z,6.83
2017-11-13T05:54:00.376Z,7.15
2017-11-13T05:56:27.943Z,6.79
2017-11-13T05:58:55.391Z,6.73
2017-11-13T06:01:22.867Z,6.78
2017-11-13T06:03:53.484Z,7.03
2017-11-13T06:06:20.976Z,6.86
2017-11-13T06:08:48.455Z,6.88
2017-11-13T06:11:15.946Z,6.78
2017-11-13T06:13:43.510Z,6.79
2017-11-13T06:16:10.968Z,6.85
2017-11-13T06:18:38.445Z,6.77
2017-11-13T06:21:05.896Z,7.07
2017-11-13T06:23:33.386Z,7.08
2017-11-13T06:26:00.841Z,6.96
2017-11-13T06:28:28.312Z,6.97
2017-11-13T06:30:55.761Z,7.19
2017-11-13T06:33:23.292Z,6.98
2017-11-13T06:35:50.739Z,6.92
2017-11-13T06:38:18.222Z,7.20
2017-11-13T06:40:45.658Z,7.15
2017-11-13T06:43:13.149Z,7.32
2017-11-13T06:45:40.657Z,7.41
2017-11-13T06:48:08.220Z,7.32
2017-11-13T06:50:35.731Z,7.38
2017-11-13T06:53:03.185Z,7.17
2017-11-13T06:55:30.675Z,7.14
2017-11-13T06:57:58.141Z,7.14
2017-11-13T07:00:25.626Z,7.18
2017-11-13T07:02:53.071Z,7.26
2017-11-13T07:05:20.556Z,7.24
2017-11-13T07:07:48.013Z,7.34
2017-11-13T07:10:15.483Z,7.34
2017-11-13T07:12:42.939Z,7.35
2017-11-13T07:15:10.499Z,7.31
2017-11-13T07:17:37.947Z,7.23
2017-11-13T07:20:05.413Z,7.39
2017-11-13T07:22:32.877Z,7.37
2017-11-13T07:25:00.322Z,7.30
2017-11-13T07:27:27.801Z,7.25
2017-11-13T07:29:55.252Z,7.17
2017-11-13T07:32:22.719Z,7.16
2017-11-13T07:34:50.159Z,7.23
2017-11-13T07:37:17.649Z,7.28
2017-11-13T07:39:45.107Z,7.16
2017-11-13T07:42:12.583Z,7.35
2017-11-13T07:44:40.242Z,7.16
2017-11-13T07:47:07.757Z,7.21
2017-11-13T07:49:35.201Z,7.09
2017-11-13T07:52:02.667Z,7.20
2017-11-13T07:54:30.127Z,7.21
2017-11-13T07:56:57.627Z,7.24
2017-11-13T07:59:25.080Z,7.10
2017-11-13T08:01:52.558Z,7.11
2017-11-13T08:04:20.016Z,7.01
2017-11-13T08:06:47.489Z,7.16
2017-11-13T08:09:14.945Z,7.10
2017-11-13T08:11:42.567Z,7.03
2017-11-13T08:14:10.120Z,7.05
2017-11-13T08:16:37.557Z,6.95
2017-11-13T08:19:05.035Z,7.13
2017-11-13T08:21:32.490Z,7.09
2017-11-13T08:23:59.966Z,7.19
2017-11-13T08:26:27.422Z,7.23
2017-11-13T08:28:54.901Z,7.19
2017-11-13T08:31:22.343Z,7.31
2017-11-13T08:33:49.812Z,7.31
2017-11-13T08:36:17.261Z,7.35
2017-11-13T08:38:44.770Z,7.47
2017-11-13T08:41:12.207Z,7.40
2017-11-13T08:43:39.673Z,7.63
2017-11-13T08:46:07.142Z,7.67
2017-11-13T08:48:34.579Z,7.48
2017-11-13T08:51:02.168Z,7.40
2017-11-13T08:53:29.620Z,7.51
2017-11-13T08:55:57.089Z,7.50
2017-11-13T08:58:24.534Z,7.53
2017-11-13T09:00:52.011Z,7.99
2017-11-13T09:03:19.450Z,7.74
2017-11-13T09:05:47.017Z,7.85
2017-11-13T09:08:14.454Z,7.86
2017-11-13T09:10:41.916Z,7.93
2017-11-13T09:13:09.373Z,7.77
2017-11-13T09:15:36.872Z,7.99
2017-11-13T09:18:04.386Z,7.89
2017-11-13T09:20:31.946Z,8.13
2017-11-13T09:22:59.427Z,8.04
2017-11-13T09:25:26.866Z,7.82
2017-11-13T09:27:54.332Z,7.85
2017-11-13T09:30:21.872Z,7.95
2017-11-13T09:32:49.332Z,7.79
2017-11-13T09:35:16.778Z,7.84
2017-11-13T09:37:44.243Z,7.93
2017-11-13T09:40:11.707Z,8.03
2017-11-13T09:42:39.263Z,8.08
2017-11-13T09:45:06.709Z,7.83
2017-11-13T09:47:34.215Z,7.85
2017-11-13T09:50:01.662Z,7.78
2017-11-13T09:52:29.123Z,7.90
2017-11-13T09:54:56.600Z,7.81
2017-11-13T09:57:24.082Z,7.89
2017-11-13T09:59:51.549Z,7.85
2017-11-13T10:02:18.983Z,7.89
2017-11-13T10:04:46.449Z,8.15
2017-11-13T10:07:13.905Z,7.99
2017-11-13T10:09:41.380Z,8.31
2017-11-13T10:12:08.847Z,8.26
2017-11-13T10:14:36.317Z,8.05
2017-11-13T10:17:03.787Z,8.07
2017-11-13T10:19:31.251Z,8.22
2017-11-13T10:21:58.758Z,8.40
2017-11-13T10:24:26.241Z,8.33
2017-11-13T10:26:53.683Z,8.29
2017-11-13T10:29:21.126Z,8.11
2017-11-13T10:31:48.599Z,8.08
2017-11-13T10:34:16.056Z,8.05
2017-11-13T10:36:43.525Z,7.98
2017-11-13T10:39:10.974Z,8.02
2017-11-13T10:41:38.436Z,8.06
2017-11-13T10:44:05.879Z,8.16
2017-11-13T10:46:33.462Z,8.13
2017-11-13T10:49:00.916Z,8.16
2017-11-13T10:51:28.419Z,8.48
2017-11-13T10:53:55.856Z,8.43
2017-11-13T10:56:23.312Z,8.68
2017-11-13T10:58:50.786Z,8.53
2017-11-13T11:01:18.223Z,8.39
2017-11-13T11:03:45.701Z,8.52
2017-11-13T11:06:13.146Z,8.61
2017-11-13T11:08:40.598Z,8.35
2017-11-13T11:11:08.058Z,8.56
2017-11-13T11:13:38.063Z,8.61
2017-11-13T11:16:11.120Z,8.58
2017-11-13T11:21:45.872Z,8.49
2017-11-13T11:24:13.335Z,8.47
2017-11-13T11:26:46.256Z,8.58
2017-11-13T11:29:16.164Z,8.56
2017-11-13T11:31:49.311Z,8.54
2017-11-13T11:34:22.493Z,8.48
2017-11-13T11:36:52.392Z,8.56
2017-11-13T11:39:19.854Z,8.81
2017-11-13T11:41:47.297Z,8.88
2017-11-13T11:44:29.655Z,8.79
2017-11-13T11:46:57.091Z,8.93
2017-11-13T11:49:34.471Z,8.78
2017-11-13T11:52:01.911Z,9.02
2017-11-13T11:54:29.377Z,8.90
2017-11-13T11:57:02.311Z,8.84
2017-11-13T11:59:29.776Z,9.05
2017-11-13T12:01:57.223Z,8.87
2017-11-13T12:04:24.731Z,8.73
2017-11-13T12:06:52.188Z,8.73
2017-11-13T12:09:19.649Z,8.91
2017-11-13T12:11:47.086Z,8.90
2017-11-13T12:14:14.659Z,9.01
2017-11-13T12:16:42.099Z,9.03
2017-11-13T12:19:09.640Z,8.86
2017-11-13T12:21:37.093Z,9.04
2017-11-13T12:24:04.547Z,9.04
2017-11-13T12:26:32.022Z,9.05
2017-11-13T12:28:59.497Z,8.88
2017-11-13T12:31:27.837Z,8.92
2017-11-13T12:33:55.314Z,8.96
2017-11-13T12:36:22.792Z,9.04
2017-11-13T12:38:50.235Z,9.00
2017-11-13T12:41:17.801Z,8.91
2017-11-13T12:43:45.256Z,8.98
2017-11-13T12:46:12.717Z,8.83
2017-11-13T12:48:40.170Z,8.88
2017-11-13T12:51:07.646Z,8.92
2017-11-13T12:53:35.103Z,8.99
2017-11-13T12:56:02.641Z,9.03
2017-11-13T12:58:30.200Z,9.18
2017-11-13T13:00:57.653Z,9.46
2017-11-13T13:03:25.130Z,9.43
2017-11-13T13:05:52.595Z,9.45
2017-11-13T13:08:20.083Z,9.37
2017-11-13T13:10:47.549Z,9.29
2017-11-13T13:13:15.059Z,9.11
2017-11-13T13:15:42.539Z,9.23
2017-11-13T13:18:10.052Z,9.30
2017-11-13T13:20:37.514Z,9.08
2017-11-13T13:23:05.002Z,9.27
2017-11-13T13:25:32.442Z,9.15
2017-11-13T13:27:59.884Z,9.15
2017-11-13T13:30:27.357Z,9.21
2017-11-13T13:32:54.789Z,9.40
2017-11-13T13:35:22.253Z,9.44
2017-11-13T13:37:49.695Z,9.25
2017-11-13T13:40:17.170Z,9.22
2017-11-13T13:42:44.724Z,9.08
2017-11-13T13:45:12.276Z,9.13
2017-11-13T13:47:39.727Z,9.08
2017-11-13T13:50:07.276Z,9.17
2017-11-13T13:52:34.790Z,8.96
2017-11-13T13:55:02.338Z,8.85
2017-11-13T13:57:29.800Z,8.92
2017-11-13T13:59:57.310Z,8.89
2017-11-13T14:02:24.790Z,8.91
2017-11-13T14:04:52.342Z,9.13
2017-11-13T14:07:19.810Z,9.00
2017-11-13T14:09:47.304Z,9.08
2017-11-13T14:12:14.781Z,9.12
2017-11-13T14:14:42.221Z,9.28
2017-11-13T14:17:09.715Z,9.22
2017-11-13T14:19:37.158Z,9.24
2017-11-13T14:22:04.612Z,9.18
2017-11-13T14:24:32.063Z,9.21
2017-11-13T14:26:59.542Z,9.37
2017-11-13T14:29:26.996Z,9.16
2017-11-13T14:31:54.477Z,9.13
2017-11-13T14:34:21.936Z,9.18
2017-11-13T14:36:49.437Z,9.31
2017-11-13T14:39:16.931Z,9.13
2017-11-13T14:41:44.382Z,9.44
2017-11-13T14:44:11.955Z,9.18
2017-11-13T14:46:39.417Z,9.55
2017-11-13T14:49:06.891Z,9.29
2017-11-13T14:51:34.346Z,9.14
2017-11-13T14:54:01.866Z,9.10
2017-11-13T14:56:29.310Z,9.02
2017-11-13T14:58:56.804Z,8.92
2017-11-13T15:01:24.246Z,8.86
2017-11-13T15:03:51.698Z,8.85
2017-11-13T15:06:19.144Z,8.88
2017-11-13T15:08:46.626Z,8.90
2017-11-13T15:11:14.091Z,9.00
2017-11-13T15:13:41.539Z,8.98
2017-11-13T15:16:09.020Z,8.86
2017-11-13T15:18:36.467Z,8.79
2017-11-13T15:21:04.016Z,8.85
2017-11-13T15:23:31.475Z,8.77
2017-11-13T15:25:58.980Z,8.86
2017-11-13T15:28:26.545Z,9.05
2017-11-13T15:30:54.044Z,8.73
2017-11-13T15:33:21.490Z,8.65
2017-11-13T15:35:48.959Z,8.56
2017-11-13T15:38:16.438Z,8.61
2017-11-13T15:40:43.912Z,8.63
2017-11-13T15:43:11.356Z,8.77
2017-11-13T15:45:38.875Z,8.80
2017-11-13T15:48:06.469Z,8.76
2017-11-13T15:50:33.937Z,8.62
2017-11-13T15:53:01.476Z,8.58
2017-11-13T15:55:28.971Z,8.60
2017-11-13T15:57:56.414Z,8.32
2017-11-13T16:00:23.863Z,8.12
2017-11-13T16:02:51.953Z,7.87
2017-11-13T16:05:19.438Z,7.67
2017-11-13T16:07:47.020Z,7.26
2017-11-13T16:10:14.578Z,7.16
2017-11-13T16:12:42.045Z,7.02
2017-11-13T16:15:09.482Z,6.71
2017-11-13T16:17:36.969Z,6.97
2017-11-13T16:20:04.414Z,7.01
2017-11-13T16:22:31.960Z,7.21
2017-11-13T16:24:59.416Z,7.40
2017-11-13T16:27:26.880Z,7.21
2017-11-13T16:29:54.572Z,7.04
2017-11-13T16:32:22.042Z,7.07
2017-11-13T16:34:49.478Z,7.07
2017-11-13T16:37:16.953Z,6.87
2017-11-13T16:39:44.433Z,6.65
2017-11-13T16:42:12.008Z,6.66
2017-11-13T16:44:39.451Z,6.78
2017-11-13T16:47:06.911Z,6.66
2017-11-13T16:49:34.479Z,6.51
2017-11-13T16:52:01.932Z,6.40
2017-11-13T16:54:29.395Z,6.36
2017-11-13T16:56:56.840Z,6.26
2017-11-13T16:59:24.425Z,6.23
2017-11-13T17:01:51.974Z,6.01
2017-11-13T17:04:19.541Z,6.03
2017-11-13T17:06:47.016Z,6.03
2017-11-13T17:09:14.480Z,6.07
2017-11-13T17:11:42.005Z,6.15
2017-11-13T17:14:09.472Z,5.92
2017-11-13T17:16:36.993Z,6.04
2017-11-13T17:21:45.407Z,5.97
2017-11-13T17:24:12.855Z,5.90
2017-11-13T17:26:40.324Z,5.78
2017-11-13T17:29:07.769Z,5.72
2017-11-13T17:31:35.223Z,5.77
2017-11-13T17:34:02.671Z,5.77
2017-11-13T17:36:30.161Z,5.53
2017-11-13T17:38:57.648Z,5.47
2017-11-13T17:41:25.200Z,5.25
2017-11-13T17:43:52.651Z,5.28
2017-11-13T17:46:20.117Z,5.05
2017-11-13T17:48:47.564Z,5.06
2017-11-13T17:51:15.030Z,4.94
2017-11-13T17:53:42.471Z,4.95
2017-11-13T17:56:09.945Z,4.89
2017-11-13T17:58:37.385Z,4.98
2017-11-13T18:01:04.842Z,4.78
2017-11-13T18:03:32.304Z,4.49
2017-11-13T18:05:59.774Z,4.58
2017-11-13T18:08:27.248Z,4.54
2017-11-13T18:10:54.952Z,4.52
2017-11-13T18:13:22.429Z,4.25
2017-11-13T18:15:49.906Z,4.19
2017-11-13T18:18:17.377Z,4.09
2017-11-13T18:20:44.892Z,4.16
2017-11-13T18:23:12.342Z,4.13
2017-11-13T18:25:39.795Z,4.04
2017-11-13T18:28:07.265Z,3.92
2017-11-13T18:30:34.708Z,3.84
2017-11-13T18:33:02.306Z,3.79
2017-11-13T18:35:29.743Z,3.67
2017-11-13T18:37:57.201Z,3.62
2017-11-13T18:40:24.671Z,3.49
2017-11-13T18:42:52.139Z,3.28
2017-11-13T18:45:19.598Z,3.46
2017-11-13T18:47:47.147Z,3.30
2017-11-13T18:50:14.633Z,3.21
2017-11-13T18:52:42.088Z,3.22
2017-11-13T18:55:09.563Z,3.25
2017-11-13T19:00:10.860Z,3.22
2017-11-13T19:02:38.324Z,3.09
2017-11-13T19:05:05.919Z,3.11
2017-11-13T19:07:33.351Z,3.08
2017-11-13T19:10:00.899Z,2.93
2017-11-13T19:12:28.368Z,2.98
2017-11-13T19:14:55.828Z,2.93
2017-11-13T19:17:23.291Z,2.82
2017-11-13T19:19:50.731Z,2.63
2017-11-13T19:22:18.227Z,2.77
2017-11-13T19:24:45.701Z,2.80
2017-11-13T19:27:13.152Z,2.86
2017-11-13T19:29:40.588Z,2.75
2017-11-13T19:32:08.149Z,2.87
2017-11-13T19:34:35.605Z,2.68
2017-11-13T19:37:03.103Z,2.65
2017-11-13T19:39:30.578Z,2.77
2017-11-13T19:41:58.023Z,2.66
2017-11-13T19:44:25.463Z,2.71
2017-11-13T19:46:52.949Z,2.79
2017-11-13T19:49:20.408Z,2.82
2017-11-13T19:51:47.851Z,2.75
2017-11-13T19:54:15.306Z,2.62
2017-11-13T19:56:42.756Z,2.64
2017-11-13T19:59:10.224Z,2.69
2017-11-13T20:01:37.688Z,2.56
2017-11-13T20:04:05.172Z,2.73
2017-11-13T20:06:32.629Z,2.66
2017-11-13T20:09:00.107Z,2.57
2017-11-13T20:11:27.555Z,2.66
2017-11-13T20:13:55.066Z,2.64
2017-11-13T20:16:22.510Z,2.62
2017-11-13T20:18:49.969Z,2.73
2017-11-13T20:21:17.459Z,2.75
2017-11-13T20:23:44.939Z,2.49
2017-11-13T20:26:12.404Z,2.52
2017-11-13T20:28:39.876Z,2.49
2017-11-13T20:31:07.343Z,2.51
2017-11-13T20:33:34.798Z,2.49
2017-11-13T20:36:02.279Z,2.60
2017-11-13T20:38:29.722Z,2.58
2017-11-13T20:40:57.182Z,2.75
2017-11-13T20:43:24.624Z,2.46
2017-11-13T20:45:52.096Z,2.42
2017-11-13T20:48:19.564Z,2.31
2017-11-13T20:50:47.039Z,2.34
2017-11-13T20:53:14.487Z,2.16
2017-11-13T20:55:41.959Z,2.07
2017-11-13T20:58:09.405Z,2.10
2017-11-13T21:00:36.880Z,2.16
2017-11-13T21:03:04.338Z,2.21
2017-11-13T21:05:31.803Z,2.34
2017-11-13T21:07:59.259Z,2.37
2017-11-13T21:10:26.716Z,2.28
2017-11-13T21:12:54.167Z,2.07
2017-11-13T21:15:21.685Z,2.26
2017-11-13T21:17:49.157Z,2.22
2017-11-13T21:20:16.590Z,2.12
2017-11-13T21:22:44.163Z,1.91
2017-11-13T21:25:11.640Z,2.07
2017-11-13T21:27:39.108Z,1.86
2017-11-13T21:30:06.548Z,1.81
2017-11-13T21:32:34.015Z,1.81
2017-11-13T21:35:01.546Z,1.76
2017-11-13T21:37:29.112Z,1.76
2017-11-13T21:39:56.563Z,1.89
2017-11-13T21:42:24.048Z,1.89
2017-11-13T21:44:51.510Z,2.16
2017-11-13T21:47:18.954Z,1.90
2017-11-13T21:49:46.426Z,1.92
2017-11-13T21:52:13.883Z,1.83
2017-11-13T21:54:41.346Z,1.99
2017-11-13T21:57:08.787Z,1.96
2017-11-13T21:59:36.255Z,1.75
2017-11-13T22:02:03.704Z,1.73
2017-11-13T22:04:31.185Z,1.61
2017-11-13T22:06:58.626Z,1.69
2017-11-13T22:09:26.104Z,1.70
2017-11-13T22:11:53.551Z,1.58
2017-11-13T22:14:21.012Z,1.61
2017-11-13T22:16:48.465Z,1.62
2017-11-13T22:19:15.936Z,1.71
2017-11-13T22:21:43.385Z,1.68
2017-11-13T22:24:10.863Z,1.66
2017-11-13T22:26:38.349Z,1.65
2017-11-13T22:29:05.807Z,1.83
2017-11-13T22:31:33.300Z,1.80
2017-11-13T22:34:00.750Z,1.67
2017-11-13T22:36:28.226Z,1.58
2017-11-13T22:38:55.721Z,1.41
2017-11-13T22:41:23.193Z,1.61
2017-11-13T22:43:50.656Z,1.76
2017-11-13T22:46:18.119Z,1.52
2017-11-13T22:48:45.657Z,1.55
2017-11-13T22:51:13.137Z,1.52
2017-11-13T22:53:40.576Z,1.56
2017-11-13T22:56:08.052Z,1.70
2017-11-13T22:58:35.490Z,1.74
2017-11-13T23:01:02.976Z,1.60
2017-11-13T23:03:30.442Z,1.34
2017-11-13T23:05:57.928Z,1.08
2017-11-13T23:08:25.380Z,1.42
2017-11-13T23:10:52.848Z,1.36
2017-11-13T23:13:20.336Z,1.42
2017-11-13T23:15:47.885Z,1.57
2017-11-13T23:18:15.330Z,1.54
2017-11-13T23:20:42.808Z,1.43
2017-11-13T23:23:10.252Z,1.19
2017-11-13T23:25:37.718Z,1.22
2017-11-13T23:28:05.225Z,1.15
2017-11-13T23:30:32.678Z,1.17
2017-11-13T23:33:00.178Z,1.13
2017-11-13T23:35:27.626Z,1.15
2017-11-13T23:37:55.128Z,1.17
2017-11-13T23:40:22.584Z,1.30
2017-11-13T23:42:50.087Z,1.44
2017-11-13T23:45:17.526Z,1.51
2017-11-13T23:47:44.991Z,1.86
2017-11-13T23:50:12.432Z,1.77
2017-11-13T23:52:39.889Z,2.11
2017-11-13T23:55:07.327Z,2.05
2017-11-13T23:57:34.786Z,2.29
